createdAt,value
2019-01-13T00:00:24.554Z,98029.59
2019-01-13T00:03:29.295Z,98019.47
2019-01-13T00:06:33.801Z,98017.27
2019-01-13T00:09:38.229Z,98010.84
2019-01-13T00:12:43.068Z,98012.03
2019-01-13T00:15:47.495Z,98009.33
2019-01-13T00:18:52.255Z,98010.43
2019-01-13T00:21:56.667Z,98006.50
2019-01-13T00:25:01.100Z,97996.56
2019-01-13T00:28:05.912Z,97992.52
2019-01-13T00:31:10.642Z,97987.86
2019-01-13T00:34:15.370Z,97992.80
2019-01-13T00:37:24.098Z,97990.69
2019-01-13T00:40:30.660Z,97986.63
2019-01-13T00:43:37.491Z,97989.09
2019-01-13T00:46:42.109Z,97987.64
2019-01-13T00:49:46.981Z,97984.73
2019-01-13T00:52:51.970Z,97985.80
2019-01-13T00:55:57.138Z,97976.42
2019-01-13T00:59:02.430Z,97985.16
2019-01-13T01:02:07.469Z,97982.52
2019-01-13T01:05:14.351Z,97982.52
2019-01-13T01:08:21.955Z,97983.55
2019-01-13T01:11:27.450Z,97985.55
2019-01-13T01:14:31.904Z,97985.75
2019-01-13T01:17:36.341Z,97989.73
2019-01-13T01:20:40.771Z,97983.92
2019-01-13T01:23:45.203Z,97987.80
2019-01-13T01:26:49.632Z,97992.43
2019-01-13T01:29:54.345Z,97992.23
2019-01-13T01:32:58.786Z,98000.61
2019-01-13T01:36:03.213Z,97996.73
2019-01-13T01:39:10.788Z,98002.55
2019-01-13T01:42:15.522Z,98010.36
2019-01-13T01:45:21.165Z,98013.23
2019-01-13T01:48:25.603Z,98014.86
2019-01-13T01:51:30.103Z,98013.36
2019-01-13T01:54:34.540Z,98015.95
2019-01-13T01:57:39.300Z,98013.66
2019-01-13T02:00:43.735Z,98016.27
2019-01-13T02:03:48.430Z,98011.94
2019-01-13T02:06:53.161Z,98014.78
2019-01-13T02:09:57.601Z,98015.20
2019-01-13T02:13:02.095Z,98023.95
2019-01-13T02:16:06.600Z,98021.86
2019-01-13T02:19:11.040Z,98023.38
2019-01-13T02:22:18.492Z,98015.27
2019-01-13T02:25:26.405Z,98017.63
2019-01-13T02:28:30.832Z,98020.53
2019-01-13T02:31:35.269Z,98009.23
2019-01-13T02:34:40.045Z,98001.14
2019-01-13T02:37:44.875Z,97997.80
2019-01-13T02:40:49.601Z,97995.71
2019-01-13T02:43:54.039Z,97991.25
2019-01-13T02:46:58.759Z,97986.56
2019-01-13T02:50:05.030Z,97991.41
2019-01-13T02:53:09.452Z,97988.49
2019-01-13T02:56:14.180Z,97990.38
2019-01-13T02:59:18.616Z,97987.13
2019-01-13T03:02:28.451Z,97985.02
2019-01-13T03:05:32.867Z,97980.72
2019-01-13T03:08:37.618Z,97976.73
2019-01-13T03:11:42.052Z,97971.86
2019-01-13T03:14:46.488Z,97973.00
2019-01-13T03:17:52.113Z,97977.84
2019-01-13T03:20:56.554Z,97972.87
2019-01-13T03:24:03.102Z,97979.02
2019-01-13T03:27:09.005Z,97980.60
2019-01-13T03:30:22.447Z,97979.27
2019-01-13T03:33:27.692Z,97971.12
2019-01-13T03:36:32.126Z,97976.40
2019-01-13T03:39:37.015Z,97962.09
2019-01-13T03:42:41.724Z,97970.91
2019-01-13T03:45:46.162Z,97975.45
2019-01-13T03:48:50.886Z,97974.52
2019-01-13T03:51:55.847Z,97971.41
2019-01-13T03:55:00.410Z,97962.45
2019-01-13T03:58:04.820Z,97959.00
2019-01-13T04:01:09.255Z,97959.00
2019-01-13T04:04:14.031Z,97946.31
2019-01-13T04:07:18.758Z,97947.17
2019-01-13T04:10:23.259Z,97952.28
2019-01-13T04:13:27.680Z,97945.62
2019-01-13T04:16:32.110Z,97944.67
2019-01-13T04:19:36.544Z,97939.61
2019-01-13T04:22:41.282Z,97928.18
2019-01-13T04:25:45.775Z,97924.83
2019-01-13T04:28:50.202Z,97930.77
2019-01-13T04:31:54.962Z,97919.90
2019-01-13T04:34:59.386Z,97922.11
2019-01-13T04:38:04.215Z,97921.16
2019-01-13T04:41:08.661Z,97921.20
2019-01-13T04:44:13.375Z,97913.95
2019-01-13T04:47:18.104Z,97922.49
2019-01-13T04:50:22.647Z,97923.01
2019-01-13T04:53:27.364Z,97926.16
2019-01-13T04:56:32.095Z,97925.70
2019-01-13T04:59:36.527Z,97923.38
2019-01-13T05:02:41.026Z,97925.22
2019-01-13T05:05:45.450Z,97925.55
2019-01-13T05:08:50.192Z,97932.50
2019-01-13T05:11:54.925Z,97936.36
2019-01-13T05:14:59.350Z,97933.44
2019-01-13T05:18:04.185Z,97928.11
2019-01-13T05:21:08.914Z,97920.91
2019-01-13T05:24:13.347Z,97920.05
2019-01-13T05:27:17.778Z,97910.33
2019-01-13T05:30:22.873Z,97907.86
2019-01-13T05:33:27.358Z,97902.27
2019-01-13T05:36:32.056Z,97896.16
2019-01-13T05:39:36.482Z,97879.63
2019-01-13T05:42:40.919Z,97884.70
2019-01-13T05:45:45.344Z,97889.73
2019-01-13T05:48:50.060Z,97886.26
2019-01-13T05:51:54.788Z,97872.22
2019-01-13T05:54:59.218Z,97859.42
2019-01-13T05:58:03.654Z,97855.95
2019-01-13T06:01:08.071Z,97853.86
2019-01-13T06:04:12.790Z,97847.93
2019-01-13T06:07:17.225Z,97850.33
2019-01-13T06:10:22.247Z,97855.61
2019-01-13T06:13:26.982Z,97848.16
2019-01-13T06:16:31.408Z,97846.05
2019-01-13T06:19:35.844Z,97842.34
2019-01-13T06:22:40.334Z,97839.70
2019-01-13T06:25:44.758Z,97841.59
2019-01-13T06:28:49.512Z,97838.33
2019-01-13T06:31:56.450Z,97838.06
2019-01-13T06:35:00.411Z,97840.23
2019-01-13T06:38:06.254Z,97832.27
2019-01-13T06:41:10.850Z,97826.94
2019-01-13T06:44:15.619Z,97826.88
2019-01-13T06:47:20.046Z,97828.77
2019-01-13T06:50:25.083Z,97832.47
2019-01-13T06:53:29.514Z,97826.86
2019-01-13T06:56:33.937Z,97822.81
2019-01-13T06:59:38.373Z,97825.50
2019-01-13T07:02:43.123Z,97821.97
2019-01-13T07:05:47.815Z,97819.42
2019-01-13T07:08:52.245Z,97804.38
2019-01-13T07:11:56.668Z,97806.55
2019-01-13T07:15:01.103Z,97812.45
2019-01-13T07:18:05.691Z,97811.69
2019-01-13T07:21:10.442Z,97820.75
2019-01-13T07:24:14.881Z,97817.20
2019-01-13T07:27:19.308Z,97809.06
2019-01-13T07:30:24.120Z,97799.78
2019-01-13T07:33:28.559Z,97798.94
2019-01-13T07:36:33.286Z,97784.30
2019-01-13T07:39:37.750Z,97781.41
2019-01-13T07:42:42.240Z,97788.06
2019-01-13T07:45:46.675Z,97786.50
2019-01-13T07:48:51.387Z,97786.31
2019-01-13T07:51:55.813Z,97782.56
2019-01-13T07:55:00.539Z,97782.23
2019-01-13T07:58:06.087Z,97771.05
2019-01-13T08:01:10.593Z,97760.71
2019-01-13T08:04:15.030Z,97764.16
2019-01-13T08:07:19.452Z,97759.12
2019-01-13T08:10:23.954Z,97758.57
2019-01-13T08:13:28.378Z,97742.57
2019-01-13T08:16:33.167Z,97748.70
2019-01-13T08:19:37.991Z,97750.30
2019-01-13T08:22:42.487Z,97750.22
2019-01-13T08:25:46.947Z,97750.77
2019-01-13T08:28:51.439Z,97744.66
2019-01-13T08:31:55.876Z,97751.26
2019-01-13T08:35:00.314Z,97738.22
2019-01-13T08:38:04.807Z,97742.67
2019-01-13T08:41:09.552Z,97746.98
2019-01-13T08:44:13.971Z,97748.31
2019-01-13T08:47:18.712Z,97750.19
2019-01-13T08:50:23.354Z,97753.98
2019-01-13T08:53:27.778Z,97754.97
2019-01-13T08:56:32.267Z,97747.21
2019-01-13T08:59:36.698Z,97744.58
2019-01-13T09:02:41.452Z,97746.45
2019-01-13T09:05:45.890Z,97747.44
2019-01-13T09:08:50.591Z,97735.78
2019-01-13T09:11:55.427Z,97735.78
2019-01-13T09:15:00.166Z,97736.52
2019-01-13T09:18:04.744Z,97734.31
2019-01-13T09:21:09.511Z,97734.52
2019-01-13T09:24:13.949Z,97733.53
2019-01-13T09:27:18.668Z,97743.59
2019-01-13T09:30:28.923Z,97743.56
2019-01-13T09:33:33.344Z,97738.22
2019-01-13T09:36:38.081Z,97729.36
2019-01-13T09:39:42.514Z,97731.39
2019-01-13T09:42:46.945Z,97720.75
2019-01-13T09:45:51.662Z,97715.08
2019-01-13T09:48:56.394Z,97713.75
2019-01-13T09:52:01.123Z,97722.66
2019-01-13T09:55:10.400Z,97723.30
2019-01-13T09:58:14.841Z,97729.23
2019-01-13T10:01:19.519Z,97710.91
2019-01-13T10:04:24.251Z,97705.07
2019-01-13T10:07:28.975Z,97697.41
2019-01-13T10:10:33.710Z,97688.30
2019-01-13T10:13:38.136Z,97685.70
2019-01-13T10:16:42.588Z,97687.09
2019-01-13T10:19:47.012Z,97680.52
2019-01-13T10:22:51.714Z,97676.48
2019-01-13T10:25:56.141Z,97669.85
2019-01-13T10:29:00.561Z,97662.69
2019-01-13T10:32:05.713Z,97648.81
2019-01-13T10:35:11.455Z,97633.14
2019-01-13T10:38:15.887Z,97633.61
2019-01-13T10:41:20.599Z,97624.89
2019-01-13T10:44:25.031Z,97619.86
2019-01-13T10:47:29.772Z,97612.64
2019-01-13T10:50:34.205Z,97611.62
2019-01-13T10:53:38.912Z,97605.48
2019-01-13T10:56:43.351Z,97587.20
2019-01-13T10:59:47.779Z,97578.86
2019-01-13T11:02:52.503Z,97576.22
2019-01-13T11:05:56.933Z,97560.50
2019-01-13T11:09:01.422Z,97555.98
2019-01-13T11:12:05.930Z,97559.02
2019-01-13T11:15:21.277Z,97550.95
2019-01-13T11:18:21.058Z,97537.43
2019-01-13T11:21:25.497Z,97530.53
2019-01-13T11:24:29.926Z,97525.20
2019-01-13T11:27:39.909Z,97507.13
2019-01-13T11:30:44.301Z,97504.48
2019-01-13T11:33:48.734Z,97496.48
2019-01-13T11:36:53.164Z,97483.72
2019-01-13T11:39:57.592Z,97469.08
2019-01-13T11:43:02.032Z,97462.70
2019-01-13T11:46:06.811Z,97458.16
2019-01-13T11:49:11.248Z,97448.00
2019-01-13T11:52:15.677Z,97431.55
2019-01-13T11:55:20.238Z,97439.50
2019-01-13T11:58:24.672Z,97435.04
2019-01-13T12:01:29.096Z,97435.05
2019-01-13T12:04:33.860Z,97433.70
2019-01-13T12:07:38.292Z,97423.60
2019-01-13T12:10:43.033Z,97418.82
2019-01-13T12:13:47.949Z,97407.35
2019-01-13T12:16:52.452Z,97407.12
2019-01-13T12:19:56.890Z,97392.45
2019-01-13T12:23:01.324Z,97384.77
2019-01-13T12:26:06.072Z,97382.66
2019-01-13T12:29:10.513Z,97373.31
2019-01-13T12:32:15.826Z,97384.48
2019-01-13T12:35:21.933Z,97371.13
2019-01-13T12:38:26.824Z,97376.76
2019-01-13T12:41:31.253Z,97376.48
2019-01-13T12:44:35.977Z,97378.37
2019-01-13T12:47:40.941Z,97352.81
2019-01-13T12:50:45.746Z,97350.95
2019-01-13T12:53:50.176Z,97348.85
2019-01-13T12:56:54.606Z,97335.50
2019-01-13T12:59:59.044Z,97337.33
2019-01-13T13:03:03.776Z,97327.23
2019-01-13T13:06:08.205Z,97329.09
2019-01-13T13:09:12.636Z,97318.75
2019-01-13T13:12:17.328Z,97312.92
2019-01-13T13:15:21.766Z,97311.03
2019-01-13T13:18:26.198Z,97319.05
2019-01-13T13:21:30.690Z,97325.69
2019-01-13T13:24:35.123Z,97307.08
2019-01-13T13:27:39.854Z,97299.61
2019-01-13T13:30:44.581Z,97298.01
2019-01-13T13:33:49.315Z,97275.39
2019-01-13T13:36:54.056Z,97262.28
2019-01-13T13:39:58.471Z,97259.57
2019-01-13T13:43:02.928Z,97261.83
2019-01-13T13:46:07.343Z,97275.27
2019-01-13T13:49:11.778Z,97260.31
2019-01-13T13:52:16.576Z,97251.69
2019-01-13T13:55:21.082Z,97256.33
2019-01-13T13:58:25.825Z,97254.12
2019-01-13T14:01:30.250Z,97250.41
2019-01-13T14:04:34.982Z,97255.20
2019-01-13T14:07:39.405Z,97253.01
2019-01-13T14:10:44.279Z,97258.22
2019-01-13T14:13:48.970Z,97252.64
2019-01-13T14:16:53.395Z,97233.41
2019-01-13T14:19:57.824Z,97217.10
2019-01-13T14:23:02.250Z,97211.23
2019-01-13T14:26:06.674Z,97204.25
2019-01-13T14:29:11.392Z,97200.41
2019-01-13T14:32:15.827Z,97201.47
2019-01-13T14:35:20.655Z,97215.42
2019-01-13T14:38:25.376Z,97199.38
2019-01-13T14:41:29.805Z,97199.59
2019-01-13T14:44:34.548Z,97206.19
2019-01-13T14:47:39.266Z,97207.64
2019-01-13T14:50:43.996Z,97199.41
2019-01-13T14:53:48.420Z,97199.84
2019-01-13T14:56:52.853Z,97189.38
2019-01-13T14:59:57.292Z,97180.68
2019-01-13T15:03:01.880Z,97164.21
2019-01-13T15:06:06.626Z,97156.22
2019-01-13T15:09:11.065Z,97157.24
2019-01-13T15:12:15.785Z,97159.34
2019-01-13T15:15:20.222Z,97148.49
2019-01-13T15:18:24.645Z,97144.70
2019-01-13T15:21:29.084Z,97151.68
2019-01-13T15:24:33.783Z,97161.23
2019-01-13T15:27:38.509Z,97162.76
2019-01-13T15:30:42.937Z,97158.49
2019-01-13T15:33:47.665Z,97172.11
2019-01-13T15:36:52.099Z,97169.50
2019-01-13T15:39:56.836Z,97170.56
2019-01-13T15:43:01.321Z,97163.09
2019-01-13T15:46:06.076Z,97151.61
2019-01-13T15:49:10.506Z,97164.95
2019-01-13T15:52:14.951Z,97138.92
2019-01-13T15:55:19.616Z,97147.73
2019-01-13T15:58:24.297Z,97128.84
2019-01-13T16:01:28.730Z,97127.77
2019-01-13T16:04:33.154Z,97119.00
2019-01-13T16:07:37.962Z,97113.77
2019-01-13T16:10:42.396Z,97098.56
2019-01-13T16:13:46.824Z,97094.48
2019-01-13T16:16:51.253Z,97093.38
2019-01-13T16:19:55.686Z,97094.14
2019-01-13T16:23:00.389Z,97079.23
2019-01-13T16:26:05.223Z,97080.31
2019-01-13T16:29:09.953Z,97083.23
2019-01-13T16:32:14.391Z,97081.09
2019-01-13T16:35:18.816Z,97086.45
2019-01-13T16:38:23.535Z,97090.19
2019-01-13T16:41:28.262Z,97081.34
2019-01-13T16:44:32.684Z,97072.83
2019-01-13T16:47:37.186Z,97062.34
2019-01-13T16:50:41.963Z,97053.33
2019-01-13T16:53:46.671Z,97030.02
2019-01-13T16:56:51.405Z,97033.85
2019-01-13T16:59:57.093Z,97022.53
2019-01-13T17:03:01.721Z,97016.22
2019-01-13T17:06:06.419Z,97016.16
2019-01-13T17:09:11.716Z,97007.42
2019-01-13T17:12:16.513Z,97003.05
2019-01-13T17:15:27.869Z,96990.30
2019-01-13T17:18:32.610Z,96990.91
2019-01-13T17:21:37.042Z,96979.12
2019-01-13T17:24:41.470Z,96981.58
2019-01-13T17:27:45.917Z,96979.30
2019-01-13T17:30:50.613Z,96981.41
2019-01-13T17:33:55.362Z,96976.84
2019-01-13T17:36:59.808Z,96969.14
2019-01-13T17:40:07.703Z,96958.72
2019-01-13T17:43:12.151Z,96955.02
2019-01-13T17:46:16.589Z,96955.13
2019-01-13T17:49:21.013Z,96949.38
2019-01-13T17:52:25.774Z,96961.96
2019-01-13T17:55:31.366Z,96955.73
2019-01-13T17:58:35.828Z,96955.52
2019-01-13T18:01:40.717Z,96949.55
2019-01-13T18:04:45.109Z,96936.39
2019-01-13T18:07:49.850Z,96944.91
2019-01-13T18:10:54.685Z,96947.38
2019-01-13T18:13:59.108Z,96966.63
2019-01-13T18:17:06.502Z,96977.81
2019-01-13T18:20:17.423Z,96978.50
2019-01-13T18:23:21.861Z,96960.02
2019-01-13T18:26:26.629Z,96945.21
2019-01-13T18:29:31.057Z,96928.91
2019-01-13T18:32:35.796Z,96932.62
2019-01-13T18:35:40.241Z,96930.69
2019-01-13T18:38:44.912Z,96923.73
2019-01-13T18:41:49.391Z,96919.55
2019-01-13T18:44:53.811Z,96922.20
2019-01-13T18:47:58.328Z,96895.77
2019-01-13T18:51:02.766Z,96905.52
2019-01-13T18:54:07.276Z,96886.28
2019-01-13T18:57:11.988Z,96891.63
2019-01-13T19:00:23.056Z,96871.38
2019-01-13T19:03:28.180Z,96869.94
2019-01-13T19:06:32.721Z,96872.52
2019-01-13T19:09:37.182Z,96863.99
2019-01-13T19:12:41.699Z,96847.95
2019-01-13T19:15:50.043Z,96853.77
2019-01-13T19:18:56.337Z,96856.20
2019-01-13T19:22:01.123Z,96850.55
2019-01-13T19:25:10.975Z,96847.00
2019-01-13T19:28:30.778Z,96851.05
2019-01-13T19:31:35.991Z,96863.74
2019-01-13T19:34:40.756Z,96876.77
2019-01-13T19:37:45.228Z,96885.80
2019-01-13T19:40:49.644Z,96889.73
2019-01-13T19:43:54.146Z,96872.42
2019-01-13T19:46:58.842Z,96877.13
2019-01-13T19:50:05.080Z,96863.26
2019-01-13T19:53:09.893Z,96857.72
2019-01-13T19:56:14.332Z,96859.18
2019-01-13T19:59:19.098Z,96853.75
2019-01-13T20:02:23.532Z,96851.16
2019-01-13T20:05:28.354Z,96867.13
2019-01-13T20:08:32.790Z,96851.42
2019-01-13T20:11:37.215Z,96829.91
2019-01-13T20:14:41.653Z,96858.47
2019-01-13T20:17:46.483Z,96845.28
2019-01-13T20:20:51.197Z,96863.56
2019-01-13T20:23:56.131Z,96844.65
2019-01-13T20:27:00.605Z,96835.70
2019-01-13T20:30:12.851Z,96852.53
2019-01-13T20:33:17.370Z,96845.66
2019-01-13T20:36:21.862Z,96862.95
2019-01-13T20:39:26.292Z,96847.13
2019-01-13T20:42:30.776Z,96846.59
2019-01-13T20:45:41.073Z,96841.24
2019-01-13T20:48:45.779Z,96847.45
2019-01-13T20:51:50.502Z,96859.69
2019-01-13T20:54:55.235Z,96857.18
2019-01-13T20:58:00.023Z,96875.98
2019-01-13T21:01:04.397Z,96875.01
2019-01-13T21:04:08.834Z,96895.28
2019-01-13T21:07:13.314Z,96925.17
2019-01-13T21:10:20.332Z,96940.70
2019-01-13T21:13:24.771Z,96930.91
2019-01-13T21:16:29.295Z,96942.04
2019-01-13T21:19:33.729Z,96922.95
2019-01-13T21:22:38.289Z,96929.13
2019-01-13T21:25:43.054Z,96928.47
2019-01-13T21:28:47.573Z,96918.68
2019-01-13T21:31:52.005Z,96923.02
2019-01-13T21:34:56.756Z,96907.31
2019-01-13T21:38:01.466Z,96916.19
2019-01-13T21:41:06.197Z,96904.76
2019-01-13T21:44:11.000Z,96903.48
2019-01-13T21:47:15.414Z,96903.00
2019-01-13T21:50:25.665Z,96896.27
2019-01-13T21:53:30.089Z,96906.44
2019-01-13T21:56:34.772Z,96901.37
2019-01-13T21:59:39.207Z,96909.38
2019-01-13T22:02:43.922Z,96908.26
2019-01-13T22:05:48.668Z,96900.80
2019-01-13T22:08:56.166Z,96898.08
2019-01-13T22:11:59.855Z,96894.58
2019-01-13T22:15:05.631Z,96896.45
2019-01-13T22:18:10.134Z,96909.53
2019-01-13T22:21:14.575Z,96897.78
2019-01-13T22:24:19.312Z,96894.31
2019-01-13T22:27:23.726Z,96897.19
2019-01-13T22:30:28.157Z,96897.66
2019-01-13T22:33:32.590Z,96881.88
2019-01-13T22:36:37.305Z,96897.57
2019-01-13T22:39:41.727Z,96879.64
2019-01-13T22:42:46.969Z,96875.79
2019-01-13T22:45:51.420Z,96879.30
2019-01-13T22:48:55.905Z,96867.18
2019-01-13T22:52:00.632Z,96882.89
2019-01-13T22:55:08.423Z,96875.44
2019-01-13T22:58:12.856Z,96876.00
2019-01-13T23:01:23.881Z,96872.53
2019-01-13T23:04:28.451Z,96880.17
2019-01-13T23:07:32.956Z,96877.77
2019-01-13T23:10:37.741Z,96879.31
2019-01-13T23:13:42.164Z,96892.97
2019-01-13T23:16:46.876Z,96896.88
2019-01-13T23:19:51.613Z,96894.22
2019-01-13T23:22:56.039Z,96896.17
2019-01-13T23:26:00.473Z,96924.50
2019-01-13T23:29:06.543Z,96933.36
2019-01-13T23:32:10.980Z,96951.34
2019-01-13T23:35:15.673Z,96963.72
2019-01-13T23:38:20.104Z,96959.94
2019-01-13T23:41:24.830Z,96955.16
2019-01-13T23:44:29.556Z,96952.58
2019-01-13T23:47:34.290Z,96965.99
2019-01-13T23:50:39.015Z,96967.27
2019-01-13T23:53:43.448Z,96954.14
2019-01-13T23:56:47.879Z,96964.79
2019-01-13T23:59:52.595Z,96977.55
